createdAt,value
2022-11-28T00:00:20.085Z,6.28
2022-11-28T00:01:19.035Z,6.28
2022-11-28T00:02:19.220Z,6.29
2022-11-28T00:03:19.431Z,6.29
2022-11-28T00:04:19.030Z,6.29
2022-11-28T00:05:19.011Z,6.30
2022-11-28T00:06:19.012Z,6.32
2022-11-28T00:07:19.075Z,6.33
2022-11-28T00:08:19.027Z,6.33
2022-11-28T00:09:19.016Z,6.35
2022-11-28T00:10:19.025Z,6.36
2022-11-28T00:11:18.922Z,6.40
2022-11-28T00:12:18.999Z,6.41
2022-11-28T00:13:18.950Z,6.40
2022-11-28T00:14:18.951Z,6.41
2022-11-28T00:15:19.860Z,6.43
2022-11-28T00:16:19.002Z,6.41
2022-11-28T00:17:18.947Z,6.41
2022-11-28T00:18:18.864Z,6.40
2022-11-28T00:19:18.860Z,6.40
2022-11-28T00:20:18.824Z,6.40
2022-11-28T00:21:18.838Z,6.40
2022-11-28T00:22:18.802Z,6.40
2022-11-28T00:23:18.823Z,6.41
2022-11-28T00:24:18.787Z,6.40
2022-11-28T00:25:18.798Z,6.41
2022-11-28T00:26:18.767Z,6.35
2022-11-28T00:27:18.789Z,6.33
2022-11-28T00:28:18.737Z,6.33
2022-11-28T00:29:18.753Z,6.33
2022-11-28T00:30:18.736Z,6.33
2022-11-28T00:31:18.770Z,6.36
2022-11-28T00:32:18.704Z,6.36
2022-11-28T00:33:18.692Z,6.36
2022-11-28T00:34:18.687Z,6.40
2022-11-28T00:35:18.679Z,6.40
2022-11-28T00:36:18.655Z,6.41
2022-11-28T00:37:18.660Z,6.40
2022-11-28T00:38:18.619Z,6.38
2022-11-28T00:39:18.637Z,6.38
2022-11-28T00:40:18.597Z,6.40
2022-11-28T00:41:18.623Z,6.40
2022-11-28T00:42:18.585Z,6.38
2022-11-28T00:43:18.592Z,6.38
2022-11-28T00:44:18.555Z,6.38
2022-11-28T00:45:18.578Z,6.40
2022-11-28T00:46:18.637Z,6.41
2022-11-28T00:47:18.554Z,6.38
2022-11-28T00:48:18.515Z,6.38
2022-11-28T00:49:18.525Z,6.41
2022-11-28T00:50:18.513Z,6.43
2022-11-28T00:51:18.513Z,6.40
2022-11-28T00:52:18.470Z,6.41
2022-11-28T00:53:18.485Z,6.40
2022-11-28T00:54:18.451Z,6.38
2022-11-28T00:55:18.456Z,6.36
2022-11-28T00:56:18.420Z,6.36
2022-11-28T00:57:19.402Z,6.33
2022-11-28T00:58:19.351Z,6.30
2022-11-28T00:59:19.381Z,6.32
2022-11-28T01:00:18.375Z,6.29
2022-11-28T01:01:18.442Z,6.28
2022-11-28T01:02:18.392Z,6.28
2022-11-28T01:03:18.387Z,6.26
2022-11-28T01:04:18.338Z,6.25
2022-11-28T01:05:19.315Z,6.26
2022-11-28T01:06:18.306Z,6.26
2022-11-28T01:07:18.333Z,6.28
2022-11-28T01:08:18.623Z,6.28
2022-11-28T01:09:18.290Z,6.28
2022-11-28T01:10:18.663Z,6.29
2022-11-28T01:11:18.300Z,6.28
2022-11-28T01:12:18.256Z,6.30
2022-11-28T01:13:18.254Z,6.32
2022-11-28T01:14:18.261Z,6.32
2022-11-28T01:15:18.240Z,6.33
2022-11-28T01:16:18.254Z,6.32
2022-11-28T01:17:18.204Z,6.33
2022-11-28T01:18:18.200Z,6.32
2022-11-28T01:19:18.202Z,6.28
2022-11-28T01:20:18.171Z,6.28
2022-11-28T01:21:18.162Z,6.26
2022-11-28T01:22:18.162Z,6.26
2022-11-28T01:23:18.137Z,6.26
2022-11-28T01:24:18.104Z,6.28
2022-11-28T01:25:18.137Z,6.29
2022-11-28T01:26:18.092Z,6.26
2022-11-28T01:27:18.122Z,6.26
2022-11-28T01:28:18.065Z,6.25
2022-11-28T01:29:18.077Z,6.25
2022-11-28T01:30:18.982Z,6.26
2022-11-28T01:31:18.163Z,6.25
2022-11-28T01:32:18.016Z,6.22
2022-11-28T01:33:18.038Z,6.25
2022-11-28T01:34:18.001Z,6.22
2022-11-28T01:35:18.017Z,6.21
2022-11-28T01:36:17.967Z,6.21
2022-11-28T01:37:17.979Z,6.18
2022-11-28T01:38:17.961Z,6.16
2022-11-28T01:39:17.967Z,6.16
2022-11-28T01:40:17.918Z,6.14
2022-11-28T01:41:17.953Z,6.14
2022-11-28T01:42:17.911Z,6.13
2022-11-28T01:43:19.395Z,6.11
2022-11-28T01:44:17.890Z,6.11
2022-11-28T01:45:17.940Z,6.10
2022-11-28T01:46:17.926Z,6.11
2022-11-28T01:47:17.868Z,6.13
2022-11-28T01:48:17.861Z,6.11
2022-11-28T01:49:17.860Z,6.13
2022-11-28T01:50:17.824Z,6.14
2022-11-28T01:51:17.850Z,6.14
2022-11-28T01:52:17.811Z,6.13
2022-11-28T01:53:17.803Z,6.11
2022-11-28T01:54:17.782Z,6.13
2022-11-28T01:55:17.778Z,6.13
2022-11-28T01:56:17.745Z,6.11
2022-11-28T01:57:17.777Z,6.11
2022-11-28T01:58:17.728Z,6.10
2022-11-28T01:59:17.750Z,6.10
2022-11-28T02:00:18.660Z,6.09
2022-11-28T02:01:17.826Z,6.09
2022-11-28T02:02:19.179Z,6.11
2022-11-28T02:03:17.699Z,6.11
2022-11-28T02:04:17.654Z,6.14
2022-11-28T02:05:17.724Z,6.13
2022-11-28T02:06:17.635Z,6.13
2022-11-28T02:07:17.760Z,6.14
2022-11-28T02:08:17.628Z,6.13
2022-11-28T02:09:20.086Z,6.14
2022-11-28T02:10:18.540Z,6.18
2022-11-28T02:11:18.561Z,6.14
2022-11-28T02:12:18.511Z,6.14
2022-11-28T02:13:17.607Z,6.13
2022-11-28T02:14:17.557Z,6.10
2022-11-28T02:15:17.610Z,6.10
2022-11-28T02:16:17.646Z,6.09
2022-11-28T02:17:17.543Z,6.10
2022-11-28T02:18:17.541Z,6.10
2022-11-28T02:19:17.512Z,6.10
2022-11-28T02:20:17.495Z,6.11
2022-11-28T02:21:17.559Z,6.10
2022-11-28T02:22:17.461Z,6.10
2022-11-28T02:23:17.471Z,6.11
2022-11-28T02:24:18.387Z,6.13
2022-11-28T02:25:17.461Z,6.14
2022-11-28T02:26:17.413Z,6.14
2022-11-28T02:27:18.374Z,6.14
2022-11-28T02:28:17.392Z,6.13
2022-11-28T02:29:17.414Z,6.09
2022-11-28T02:30:17.384Z,6.07
2022-11-28T02:31:17.467Z,6.06
2022-11-28T02:32:17.353Z,6.06
2022-11-28T02:33:17.381Z,6.04
2022-11-28T02:34:17.330Z,6.03
2022-11-28T02:35:17.346Z,6.00
2022-11-28T02:36:17.307Z,6.01
2022-11-28T02:37:17.313Z,6.00
2022-11-28T02:38:17.297Z,5.98
2022-11-28T02:39:17.346Z,5.98
2022-11-28T02:40:17.263Z,6.00
2022-11-28T02:41:17.269Z,6.00
2022-11-28T02:42:17.237Z,6.00
2022-11-28T02:43:17.258Z,6.00
2022-11-28T02:44:17.232Z,5.98
2022-11-28T02:45:17.236Z,5.95
2022-11-28T02:46:17.283Z,5.95
2022-11-28T02:47:18.176Z,5.96
2022-11-28T02:48:17.184Z,5.95
2022-11-28T02:49:18.172Z,5.95
2022-11-28T02:50:17.155Z,5.95
2022-11-28T02:51:17.174Z,5.93
2022-11-28T02:52:17.140Z,5.96
2022-11-28T02:53:17.146Z,5.96
2022-11-28T02:54:17.186Z,5.93
2022-11-28T02:55:17.117Z,5.95
2022-11-28T02:56:17.083Z,5.92
2022-11-28T02:57:17.091Z,5.93
2022-11-28T02:58:17.067Z,5.92
2022-11-28T02:59:17.087Z,5.92
2022-11-28T03:00:17.948Z,5.93
2022-11-28T03:01:17.110Z,5.95
2022-11-28T03:02:17.100Z,5.92
2022-11-28T03:03:17.049Z,5.92
2022-11-28T03:04:17.939Z,5.91
2022-11-28T03:05:16.998Z,5.91
2022-11-28T03:06:16.998Z,5.95
2022-11-28T03:07:17.033Z,5.93
2022-11-28T03:08:16.950Z,5.93
2022-11-28T03:09:16.971Z,5.92
2022-11-28T03:10:16.946Z,5.92
2022-11-28T03:11:16.941Z,5.92
2022-11-28T03:12:16.906Z,5.92
2022-11-28T03:13:16.931Z,5.92
2022-11-28T03:14:16.883Z,5.92
2022-11-28T03:15:16.891Z,5.92
2022-11-28T03:16:16.871Z,5.91
2022-11-28T03:17:16.873Z,5.89
2022-11-28T03:18:16.832Z,5.88
2022-11-28T03:19:16.855Z,5.86
2022-11-28T03:20:16.827Z,5.86
2022-11-28T03:21:16.825Z,5.86
2022-11-28T03:22:16.788Z,5.85
2022-11-28T03:23:16.814Z,5.86
2022-11-28T03:24:16.778Z,5.86
2022-11-28T03:25:16.773Z,5.85
2022-11-28T03:26:16.744Z,5.86
2022-11-28T03:27:16.745Z,5.85
2022-11-28T03:28:16.751Z,5.85
2022-11-28T03:29:16.756Z,5.86
2022-11-28T03:30:16.761Z,5.86
2022-11-28T03:31:16.783Z,5.85
2022-11-28T03:32:16.676Z,5.85
2022-11-28T03:33:16.686Z,5.86
2022-11-28T03:34:16.665Z,5.85
2022-11-28T03:35:17.626Z,5.86
2022-11-28T03:36:16.637Z,5.86
2022-11-28T03:37:16.660Z,5.86
2022-11-28T03:38:16.629Z,5.83
2022-11-28T03:39:16.620Z,5.82
2022-11-28T03:40:16.605Z,5.81
2022-11-28T03:41:16.601Z,5.81
2022-11-28T03:42:16.596Z,5.78
2022-11-28T03:43:16.599Z,5.74
2022-11-28T03:44:16.551Z,5.74
2022-11-28T03:45:16.575Z,5.74
2022-11-28T03:46:16.562Z,5.74
2022-11-28T03:47:16.578Z,5.74
2022-11-28T03:48:16.504Z,5.75
2022-11-28T03:49:16.517Z,5.77
2022-11-28T03:50:16.516Z,5.74
2022-11-28T03:51:16.495Z,5.73
2022-11-28T03:52:16.445Z,5.70
2022-11-28T03:53:16.535Z,5.71
2022-11-28T03:54:16.441Z,5.71
2022-11-28T03:55:16.577Z,5.71
2022-11-28T03:56:16.428Z,5.71
2022-11-28T03:57:16.454Z,5.73
2022-11-28T03:58:16.391Z,5.73
2022-11-28T03:59:16.392Z,5.71
2022-11-28T04:00:16.441Z,5.73
2022-11-28T04:01:16.440Z,5.74
2022-11-28T04:02:16.431Z,5.74
2022-11-28T04:03:16.447Z,5.74
2022-11-28T04:04:16.322Z,5.73
2022-11-28T04:05:16.344Z,5.75
2022-11-28T04:06:16.311Z,5.74
2022-11-28T04:07:16.395Z,5.74
2022-11-28T04:08:16.287Z,5.75
2022-11-28T04:09:16.307Z,5.75
2022-11-28T04:10:16.250Z,5.74
2022-11-28T04:11:16.297Z,5.75
2022-11-28T04:12:16.271Z,5.74
2022-11-28T04:13:16.242Z,5.73
2022-11-28T04:14:16.246Z,5.74
2022-11-28T04:15:16.223Z,5.70
2022-11-28T04:16:16.267Z,5.71
2022-11-28T04:17:16.233Z,5.71
2022-11-28T04:18:16.204Z,5.68
2022-11-28T04:19:16.158Z,5.67
2022-11-28T04:20:16.149Z,5.68
2022-11-28T04:21:16.156Z,5.68
2022-11-28T04:22:16.158Z,5.68
2022-11-28T04:23:16.139Z,5.68
2022-11-28T04:24:16.113Z,5.68
2022-11-28T04:25:16.125Z,5.70
2022-11-28T04:26:16.093Z,5.70
2022-11-28T04:27:16.093Z,5.71
2022-11-28T04:28:16.068Z,5.70
2022-11-28T04:29:16.066Z,5.71
2022-11-28T04:30:16.061Z,5.71
2022-11-28T04:31:16.105Z,5.71
2022-11-28T04:32:16.020Z,5.73
2022-11-28T04:33:16.054Z,5.71
2022-11-28T04:34:15.988Z,5.70
2022-11-28T04:35:16.008Z,5.71
2022-11-28T04:36:15.990Z,5.71
2022-11-28T04:37:15.958Z,5.71
2022-11-28T04:38:15.992Z,5.70
2022-11-28T04:39:15.960Z,5.71
2022-11-28T04:40:15.945Z,5.71
2022-11-28T04:41:15.929Z,5.70
2022-11-28T04:42:15.942Z,5.70
2022-11-28T04:43:15.888Z,5.71
2022-11-28T04:44:15.910Z,5.71
2022-11-28T04:45:15.867Z,5.71
2022-11-28T04:46:15.957Z,5.73
2022-11-28T04:47:15.837Z,5.71
2022-11-28T04:48:15.871Z,5.71
2022-11-28T04:49:15.820Z,5.74
2022-11-28T04:50:15.831Z,5.73
2022-11-28T04:51:15.800Z,5.74
2022-11-28T04:52:15.807Z,5.75
2022-11-28T04:53:15.782Z,5.75
2022-11-28T04:54:15.831Z,5.75
2022-11-28T04:55:15.800Z,5.75
2022-11-28T04:56:15.772Z,5.74
2022-11-28T04:57:15.738Z,5.75
2022-11-28T04:58:15.796Z,5.77
2022-11-28T04:59:15.709Z,5.78
2022-11-28T05:00:15.726Z,5.82
2022-11-28T05:01:15.744Z,5.78
2022-11-28T05:02:15.781Z,5.81
2022-11-28T05:03:15.678Z,5.82
2022-11-28T05:04:15.690Z,5.82
2022-11-28T05:05:15.640Z,5.83
2022-11-28T05:06:15.652Z,5.85
2022-11-28T05:07:15.677Z,5.85
2022-11-28T05:08:15.649Z,5.85
2022-11-28T05:09:15.626Z,5.88
2022-11-28T05:10:15.612Z,5.89
2022-11-28T05:11:15.573Z,5.88
2022-11-28T05:12:15.588Z,5.88
2022-11-28T05:13:15.553Z,5.89
2022-11-28T05:14:15.587Z,5.89
2022-11-28T05:15:15.541Z,5.92
2022-11-28T05:16:15.591Z,5.92
2022-11-28T05:17:15.517Z,5.93
2022-11-28T05:18:15.545Z,5.95
2022-11-28T05:19:15.503Z,5.93
2022-11-28T05:20:15.502Z,5.96
2022-11-28T05:21:15.454Z,5.96
2022-11-28T05:22:15.475Z,5.98
2022-11-28T05:23:15.434Z,6.00
2022-11-28T05:24:15.475Z,6.01
2022-11-28T05:25:15.430Z,6.01
2022-11-28T05:26:15.436Z,6.01
2022-11-28T05:27:15.391Z,6.03
2022-11-28T05:28:15.414Z,6.04
2022-11-28T05:29:15.378Z,6.06
2022-11-28T05:30:15.411Z,6.03
2022-11-28T05:31:15.428Z,6.04
2022-11-28T05:32:15.362Z,6.06
2022-11-28T05:33:15.344Z,6.04
2022-11-28T05:34:15.337Z,6.04
2022-11-28T05:35:15.317Z,6.06
2022-11-28T05:36:15.334Z,6.06
2022-11-28T05:37:15.294Z,6.04
2022-11-28T05:38:15.299Z,6.04
2022-11-28T05:39:15.262Z,6.06
2022-11-28T05:40:15.278Z,6.07
2022-11-28T05:41:15.275Z,6.04
2022-11-28T05:42:15.264Z,6.03
2022-11-28T05:43:15.226Z,6.06
2022-11-28T05:44:15.237Z,6.03
2022-11-28T05:45:15.216Z,6.03
2022-11-28T05:46:15.267Z,6.04
2022-11-28T05:47:15.216Z,6.03
2022-11-28T05:48:15.200Z,6.04
2022-11-28T05:49:15.185Z,6.04
2022-11-28T05:50:15.154Z,6.04
2022-11-28T05:51:15.151Z,6.09
2022-11-28T05:52:15.168Z,6.07
2022-11-28T05:53:15.121Z,6.09
2022-11-28T05:54:15.115Z,6.11
2022-11-28T05:55:15.086Z,6.11
2022-11-28T05:56:15.121Z,6.14
2022-11-28T05:57:15.067Z,6.14
2022-11-28T05:58:15.076Z,6.16
2022-11-28T05:59:15.036Z,6.14
2022-11-28T06:00:15.054Z,6.16
2022-11-28T06:01:15.029Z,6.16
2022-11-28T06:02:15.082Z,6.16
2022-11-28T06:03:14.999Z,6.14
2022-11-28T06:04:15.095Z,6.14
2022-11-28T06:05:35.036Z,6.16
2022-11-28T06:06:15.977Z,6.16
2022-11-28T06:07:15.019Z,6.16
2022-11-28T06:08:14.959Z,6.18
2022-11-28T06:09:14.938Z,6.18
2022-11-28T06:10:14.937Z,6.18
2022-11-28T06:11:14.963Z,6.21
2022-11-28T06:12:14.933Z,6.19
2022-11-28T06:13:14.883Z,6.21
2022-11-28T06:14:14.906Z,6.21
2022-11-28T06:15:14.861Z,6.22
2022-11-28T06:16:14.922Z,6.22
2022-11-28T06:17:14.848Z,6.21
2022-11-28T06:18:14.868Z,6.21
2022-11-28T06:19:14.864Z,6.19
2022-11-28T06:20:14.839Z,6.19
2022-11-28T06:21:14.789Z,6.19
2022-11-28T06:22:14.803Z,6.21
2022-11-28T06:23:14.792Z,6.19
2022-11-28T06:24:14.800Z,6.19
2022-11-28T06:25:15.700Z,6.19
2022-11-28T06:26:14.763Z,6.18
2022-11-28T06:27:14.721Z,6.18
2022-11-28T06:28:14.767Z,6.19
2022-11-28T06:29:14.705Z,6.19
2022-11-28T06:30:14.722Z,6.21
2022-11-28T06:31:14.729Z,6.25
2022-11-28T06:32:18.841Z,6.26
2022-11-28T06:33:15.673Z,6.26
2022-11-28T06:34:14.679Z,6.28
2022-11-28T06:35:14.654Z,6.28
2022-11-28T06:36:14.654Z,6.25
2022-11-28T06:37:14.665Z,6.25
2022-11-28T06:38:14.684Z,6.25
2022-11-28T06:39:14.602Z,6.26
2022-11-28T06:40:14.615Z,6.22
2022-11-28T06:41:14.567Z,6.25
2022-11-28T06:42:14.587Z,6.25
2022-11-28T06:43:14.762Z,6.21
2022-11-28T06:44:14.562Z,6.19
2022-11-28T06:45:14.567Z,6.21
2022-11-28T06:46:16.141Z,6.19
2022-11-28T06:47:14.580Z,6.19
2022-11-28T06:48:14.524Z,6.19
2022-11-28T06:49:14.483Z,6.18
2022-11-28T06:50:14.492Z,6.19
2022-11-28T06:51:14.463Z,6.19
2022-11-28T06:52:14.493Z,6.22
2022-11-28T06:53:14.433Z,6.22
2022-11-28T06:54:14.480Z,6.26
2022-11-28T06:55:14.440Z,6.25
2022-11-28T06:56:14.422Z,6.25
2022-11-28T06:57:14.413Z,6.26
2022-11-28T06:58:14.440Z,6.25
2022-11-28T06:59:14.431Z,6.26
2022-11-28T07:00:14.407Z,6.28
2022-11-28T07:01:14.436Z,6.28
2022-11-28T07:02:14.460Z,6.28
2022-11-28T07:03:14.333Z,6.28
2022-11-28T07:04:14.361Z,6.29
2022-11-28T07:05:14.319Z,6.28
2022-11-28T07:06:14.309Z,6.29
2022-11-28T07:07:16.653Z,6.30
2022-11-28T07:08:14.398Z,6.29
2022-11-28T07:09:14.257Z,6.32
2022-11-28T07:10:14.273Z,6.32
2022-11-28T07:11:14.263Z,6.32
2022-11-28T07:12:14.248Z,6.35
2022-11-28T07:13:14.251Z,6.35
2022-11-28T07:14:15.171Z,6.35
2022-11-28T07:15:14.263Z,6.33
2022-11-28T07:16:14.301Z,6.33
2022-11-28T07:17:14.165Z,6.35
2022-11-28T07:18:14.194Z,6.36
2022-11-28T07:19:14.155Z,6.36
2022-11-28T07:20:14.157Z,6.35
2022-11-28T07:21:14.132Z,6.36
2022-11-28T07:22:14.141Z,6.36
2022-11-28T07:23:14.123Z,6.38
2022-11-28T07:24:14.111Z,6.36
2022-11-28T07:25:14.089Z,6.38
2022-11-28T07:26:14.092Z,6.36
2022-11-28T07:27:14.056Z,6.36
2022-11-28T07:28:14.077Z,6.36
2022-11-28T07:29:14.038Z,6.36
2022-11-28T07:30:14.051Z,6.35
2022-11-28T07:31:14.992Z,6.35
2022-11-28T07:32:14.080Z,6.33
2022-11-28T07:33:13.991Z,6.35
2022-11-28T07:34:14.027Z,6.32
2022-11-28T07:35:14.032Z,6.30
2022-11-28T07:36:13.978Z,6.29
2022-11-28T07:37:13.952Z,6.30
2022-11-28T07:38:13.956Z,6.30
2022-11-28T07:39:13.994Z,6.29
2022-11-28T07:40:13.959Z,6.29
2022-11-28T07:41:13.898Z,6.29
2022-11-28T07:42:13.932Z,6.29
2022-11-28T07:43:13.880Z,6.26
2022-11-28T07:44:13.904Z,6.22
2022-11-28T07:45:13.862Z,6.25
2022-11-28T07:46:13.891Z,6.22
2022-11-28T07:47:13.829Z,6.22
2022-11-28T07:48:13.853Z,6.19
2022-11-28T07:49:13.828Z,6.19
2022-11-28T07:50:13.813Z,6.18
2022-11-28T07:51:13.778Z,6.18
2022-11-28T07:52:13.801Z,6.18
2022-11-28T07:53:13.811Z,6.18
2022-11-28T07:54:13.836Z,6.18
2022-11-28T07:55:13.745Z,6.14
2022-11-28T07:56:13.754Z,6.18
2022-11-28T07:57:13.769Z,6.18
2022-11-28T07:58:13.755Z,6.19
2022-11-28T07:59:13.699Z,6.19
2022-11-28T08:00:13.718Z,6.19
2022-11-28T08:01:13.686Z,6.19
2022-11-28T08:02:13.743Z,6.19
2022-11-28T08:03:13.666Z,6.19
2022-11-28T08:04:13.725Z,6.21
2022-11-28T08:05:13.782Z,6.21
2022-11-28T08:06:13.640Z,6.21
2022-11-28T08:07:13.729Z,6.21
2022-11-28T08:08:13.638Z,6.19
2022-11-28T08:09:13.589Z,6.21
2022-11-28T08:10:13.620Z,6.21
2022-11-28T08:11:13.602Z,6.22
2022-11-28T08:12:13.573Z,6.22
2022-11-28T08:13:13.559Z,6.25
2022-11-28T08:14:13.556Z,6.22
2022-11-28T08:15:13.531Z,6.25
2022-11-28T08:16:13.563Z,6.25
2022-11-28T08:17:13.496Z,6.26
2022-11-28T08:18:13.520Z,6.29
2022-11-28T08:19:13.488Z,6.28
2022-11-28T08:20:13.495Z,6.28
2022-11-28T08:21:13.452Z,6.30
2022-11-28T08:22:13.461Z,6.28
2022-11-28T08:23:13.440Z,6.29
2022-11-28T08:24:13.472Z,6.28
2022-11-28T08:25:13.416Z,6.29
2022-11-28T08:26:13.422Z,6.29
2022-11-28T08:27:13.389Z,6.30
2022-11-28T08:28:13.403Z,6.28
2022-11-28T08:29:13.368Z,6.28
2022-11-28T08:30:13.394Z,6.28
2022-11-28T08:31:13.384Z,6.29
2022-11-28T08:32:13.373Z,6.29
2022-11-28T08:33:13.316Z,6.29
2022-11-28T08:34:13.348Z,6.30
2022-11-28T08:35:13.285Z,6.30
2022-11-28T08:36:13.308Z,6.32
2022-11-28T08:37:13.293Z,6.30
2022-11-28T08:38:13.279Z,6.30
2022-11-28T08:39:28.533Z,6.32
2022-11-28T08:40:14.257Z,6.32
2022-11-28T08:41:13.247Z,6.33
2022-11-28T08:42:13.249Z,6.35
2022-11-28T08:43:13.208Z,6.36
2022-11-28T08:44:14.222Z,6.40
2022-11-28T08:45:13.180Z,6.40
2022-11-28T08:46:13.344Z,6.40
2022-11-28T08:47:13.188Z,6.43
2022-11-28T08:48:13.169Z,6.43
2022-11-28T08:49:13.155Z,6.43
2022-11-28T08:50:13.126Z,6.44
2022-11-28T08:51:13.135Z,6.43
2022-11-28T08:52:13.129Z,6.43
2022-11-28T08:53:18.529Z,6.46
2022-11-28T08:54:14.148Z,6.44
2022-11-28T08:55:14.046Z,6.46
2022-11-28T08:56:13.067Z,6.46
2022-11-28T08:57:13.091Z,6.47
2022-11-28T08:58:13.745Z,6.47
2022-11-28T08:59:13.047Z,6.46
2022-11-28T09:00:13.011Z,6.46
2022-11-28T09:01:13.037Z,6.47
2022-11-28T09:02:13.022Z,6.47
2022-11-28T09:03:12.993Z,6.48
2022-11-28T09:04:12.985Z,6.48
2022-11-28T09:05:12.998Z,6.50
2022-11-28T09:06:12.936Z,6.51
2022-11-28T09:07:13.000Z,6.53
2022-11-28T09:08:12.934Z,6.54
2022-11-28T09:09:12.945Z,6.53
2022-11-28T09:10:12.916Z,6.54
2022-11-28T09:11:12.991Z,6.54
2022-11-28T09:12:13.835Z,6.56
2022-11-28T09:13:12.903Z,6.59
2022-11-28T09:14:12.867Z,6.61
2022-11-28T09:15:12.864Z,6.61
2022-11-28T09:16:12.835Z,6.59
2022-11-28T09:17:12.933Z,6.61
2022-11-28T09:18:12.833Z,6.62
2022-11-28T09:19:12.822Z,6.62
2022-11-28T09:20:13.782Z,6.63
2022-11-28T09:21:12.817Z,6.65
2022-11-28T09:22:12.770Z,6.65
2022-11-28T09:23:12.776Z,6.68
2022-11-28T09:24:12.738Z,6.69
2022-11-28T09:25:12.766Z,6.71
2022-11-28T09:26:12.723Z,6.72
2022-11-28T09:27:12.786Z,6.76
2022-11-28T09:28:12.706Z,6.73
2022-11-28T09:29:12.751Z,6.77
2022-11-28T09:30:12.683Z,6.77
2022-11-28T09:31:12.885Z,6.79
2022-11-28T09:32:12.681Z,6.81
2022-11-28T09:33:12.704Z,6.80
2022-11-28T09:34:13.592Z,6.80
2022-11-28T09:35:12.661Z,6.83
2022-11-28T09:36:12.617Z,6.84
2022-11-28T09:37:12.622Z,6.83
2022-11-28T09:38:12.608Z,6.84
2022-11-28T09:39:12.622Z,6.86
2022-11-28T09:40:13.856Z,6.83
2022-11-28T09:41:12.581Z,6.86
2022-11-28T09:42:12.581Z,6.89
2022-11-28T09:43:12.552Z,6.87
2022-11-28T09:44:12.513Z,6.90
2022-11-28T09:45:12.533Z,6.90
2022-11-28T09:46:12.543Z,6.90
2022-11-28T09:47:12.523Z,6.91
2022-11-28T09:48:12.474Z,6.91
2022-11-28T09:49:12.530Z,6.94
2022-11-28T09:50:12.446Z,6.94
2022-11-28T09:51:12.500Z,6.94
2022-11-28T09:52:12.484Z,6.94
2022-11-28T09:53:12.475Z,6.98
2022-11-28T09:54:12.400Z,7.02
2022-11-28T09:55:13.369Z,7.01
2022-11-28T09:56:12.382Z,7.04
2022-11-28T09:57:12.398Z,7.07
2022-11-28T09:58:12.378Z,7.09
2022-11-28T09:59:12.577Z,7.09
2022-11-28T10:00:12.346Z,7.13
2022-11-28T10:01:12.351Z,7.13
2022-11-28T10:02:12.339Z,7.13
2022-11-28T10:03:12.376Z,7.15
2022-11-28T10:04:12.436Z,7.15
2022-11-28T10:05:12.388Z,7.16
2022-11-28T10:06:12.310Z,7.16
2022-11-28T10:07:12.443Z,7.17
2022-11-28T10:08:12.241Z,7.17
2022-11-28T10:09:12.280Z,7.17
2022-11-28T10:10:12.215Z,7.20
2022-11-28T10:11:12.238Z,7.20
2022-11-28T10:12:12.216Z,7.17
2022-11-28T10:13:12.240Z,7.17
2022-11-28T10:14:12.187Z,7.17
2022-11-28T10:15:12.201Z,7.19
2022-11-28T10:16:12.250Z,7.20
2022-11-28T10:17:12.234Z,7.22
2022-11-28T10:18:12.145Z,7.22
2022-11-28T10:19:20.622Z,7.22
2022-11-28T10:20:13.117Z,7.22
2022-11-28T10:21:12.131Z,7.20
2022-11-28T10:22:12.097Z,7.20
2022-11-28T10:23:12.137Z,7.17
2022-11-28T10:24:12.083Z,7.19
2022-11-28T10:25:12.100Z,7.19
2022-11-28T10:26:12.038Z,7.17
2022-11-28T10:27:12.062Z,7.22
2022-11-28T10:28:12.018Z,7.20
2022-11-28T10:29:12.046Z,7.22
2022-11-28T10:30:12.018Z,7.26
2022-11-28T10:31:12.068Z,7.26
2022-11-28T10:32:11.981Z,7.26
2022-11-28T10:33:12.019Z,7.27
2022-11-28T10:34:11.936Z,7.27
2022-11-28T10:35:11.983Z,7.29
2022-11-28T10:36:11.944Z,7.31
2022-11-28T10:37:11.954Z,7.31
2022-11-28T10:38:11.911Z,7.31
2022-11-28T10:39:11.948Z,7.27
2022-11-28T10:40:11.893Z,7.29
2022-11-28T10:41:11.920Z,7.31
2022-11-28T10:42:11.895Z,7.32
2022-11-28T10:43:11.890Z,7.34
2022-11-28T10:44:14.759Z,7.37
2022-11-28T10:45:12.874Z,7.40
2022-11-28T10:46:11.966Z,7.40
2022-11-28T10:47:11.836Z,7.41
2022-11-28T10:48:38.429Z,7.41
2022-11-28T10:49:12.839Z,7.41
2022-11-28T10:50:11.771Z,7.41
2022-11-28T10:51:11.791Z,7.40
2022-11-28T10:52:11.763Z,7.41
2022-11-28T10:53:12.852Z,7.40
2022-11-28T10:54:11.735Z,7.40
2022-11-28T10:55:11.755Z,7.40
2022-11-28T10:56:11.971Z,7.40
2022-11-28T10:57:11.734Z,7.40
2022-11-28T10:58:11.689Z,7.41
2022-11-28T10:59:11.719Z,7.40
2022-11-28T11:00:11.730Z,7.42
2022-11-28T11:01:11.764Z,7.44
2022-11-28T11:02:11.647Z,7.41
2022-11-28T11:03:11.681Z,7.41
2022-11-28T11:04:11.676Z,7.41
2022-11-28T11:05:11.689Z,7.42
2022-11-28T11:06:11.591Z,7.45
2022-11-28T11:07:17.645Z,7.44
2022-11-28T11:08:12.712Z,7.45
2022-11-28T11:09:11.588Z,7.42
2022-11-28T11:10:11.555Z,7.42
2022-11-28T11:11:11.590Z,7.44
2022-11-28T11:12:11.555Z,7.45
2022-11-28T11:13:11.533Z,7.45
2022-11-28T11:14:11.505Z,7.42
2022-11-28T11:15:11.530Z,7.40
2022-11-28T11:16:11.640Z,7.44
2022-11-28T11:17:11.489Z,7.42
2022-11-28T11:18:11.477Z,7.44
2022-11-28T11:19:11.492Z,7.42
2022-11-28T11:20:11.432Z,7.42
2022-11-28T11:21:11.451Z,7.42
2022-11-28T11:22:11.425Z,7.42
2022-11-28T11:23:11.450Z,7.44
2022-11-28T11:24:11.410Z,7.44
2022-11-28T11:25:12.358Z,7.45
2022-11-28T11:26:11.377Z,7.47
2022-11-28T11:27:11.400Z,7.44
2022-11-28T11:28:11.356Z,7.47
2022-11-28T11:29:11.379Z,7.45
2022-11-28T11:30:11.333Z,7.45
2022-11-28T11:31:11.392Z,7.45
2022-11-28T11:32:11.293Z,7.45
2022-11-28T11:33:11.332Z,7.47
2022-11-28T11:34:11.274Z,7.47
2022-11-28T11:35:11.342Z,7.47
2022-11-28T11:36:11.243Z,7.47
2022-11-28T11:37:11.269Z,7.50
2022-11-28T11:38:11.224Z,7.52
2022-11-28T11:39:11.245Z,7.52
2022-11-28T11:40:12.292Z,7.53
2022-11-28T11:41:11.278Z,7.55
2022-11-28T11:42:11.266Z,7.55
2022-11-28T11:43:11.205Z,7.52
2022-11-28T11:44:11.176Z,7.53
2022-11-28T11:45:11.176Z,7.55
2022-11-28T11:46:11.249Z,7.55
2022-11-28T11:47:11.175Z,7.60
2022-11-28T11:48:11.193Z,7.58
2022-11-28T11:49:11.137Z,7.60
2022-11-28T11:50:11.113Z,7.60
2022-11-28T11:51:11.119Z,7.60
2022-11-28T11:52:11.077Z,7.62
2022-11-28T11:53:11.119Z,7.62
2022-11-28T11:54:11.072Z,7.63
2022-11-28T11:55:11.083Z,7.63
2022-11-28T11:56:11.043Z,7.62
2022-11-28T11:57:32.070Z,7.62
2022-11-28T11:58:12.201Z,7.59
2022-11-28T11:59:11.044Z,7.60
2022-11-28T12:00:11.026Z,7.62
2022-11-28T12:01:11.017Z,7.62
2022-11-28T12:02:11.017Z,7.60
2022-11-28T12:03:11.072Z,7.60
2022-11-28T12:04:30.629Z,7.63
2022-11-28T12:05:11.988Z,7.66
2022-11-28T12:06:14.666Z,7.66
2022-11-28T12:07:10.952Z,7.67
2022-11-28T12:08:10.921Z,7.67
2022-11-28T12:09:10.916Z,7.72
2022-11-28T12:10:10.876Z,7.71
2022-11-28T12:11:10.960Z,7.75
2022-11-28T12:12:10.875Z,7.75
2022-11-28T12:13:10.883Z,7.74
2022-11-28T12:14:10.836Z,7.74
2022-11-28T12:15:10.868Z,7.74
2022-11-28T12:16:10.891Z,7.74
2022-11-28T12:17:40.344Z,7.74
2022-11-28T12:18:11.896Z,7.72
2022-11-28T12:19:10.807Z,7.74
2022-11-28T12:20:10.779Z,7.74
2022-11-28T12:21:10.792Z,7.77
2022-11-28T12:22:10.776Z,7.78
2022-11-28T12:23:15.822Z,7.77
2022-11-28T12:24:11.747Z,7.79
2022-11-28T12:25:11.705Z,7.78
2022-11-28T12:26:10.728Z,7.79
2022-11-28T12:27:10.738Z,7.81
2022-11-28T12:28:10.684Z,7.82
2022-11-28T12:29:10.701Z,7.84
2022-11-28T12:30:10.718Z,7.85
2022-11-28T12:31:10.700Z,7.87
2022-11-28T12:32:10.655Z,7.87
2022-11-28T12:33:10.658Z,7.89
2022-11-28T12:34:10.621Z,7.90
2022-11-28T12:35:10.627Z,7.90
2022-11-28T12:36:10.619Z,7.90
2022-11-28T12:37:10.650Z,7.92
2022-11-28T12:38:11.740Z,7.90
2022-11-28T12:39:10.594Z,7.89
2022-11-28T12:40:10.639Z,7.92
2022-11-28T12:41:10.567Z,7.92
2022-11-28T12:42:10.557Z,7.93
2022-11-28T12:43:10.552Z,7.92
2022-11-28T12:44:10.514Z,7.93
2022-11-28T12:45:10.529Z,7.94
2022-11-28T12:46:10.526Z,7.93
2022-11-28T12:47:10.504Z,7.94
2022-11-28T12:48:10.492Z,7.92
2022-11-28T12:49:10.474Z,7.94
2022-11-28T12:50:10.565Z,7.93
2022-11-28T12:51:10.469Z,7.93
2022-11-28T12:52:10.431Z,7.94
2022-11-28T12:53:10.447Z,7.94
2022-11-28T12:54:10.419Z,7.94
2022-11-28T12:55:10.417Z,7.94
2022-11-28T12:56:11.318Z,7.94
2022-11-28T12:57:10.389Z,7.93
2022-11-28T12:58:10.381Z,7.92
2022-11-28T12:59:10.394Z,7.93
2022-11-28T13:00:10.351Z,7.92
2022-11-28T13:01:10.352Z,7.92
2022-11-28T13:02:10.425Z,7.93
2022-11-28T13:03:10.465Z,7.92
2022-11-28T13:04:10.363Z,7.94
2022-11-28T13:05:10.319Z,7.93
2022-11-28T13:06:10.297Z,7.94
2022-11-28T13:07:10.306Z,7.93
2022-11-28T13:08:10.273Z,7.94
2022-11-28T13:09:10.263Z,7.93
2022-11-28T13:10:10.326Z,7.94
2022-11-28T13:11:10.217Z,7.94
2022-11-28T13:12:10.212Z,7.93
2022-11-28T13:13:10.229Z,7.92
2022-11-28T13:14:10.256Z,7.90
2022-11-28T13:15:10.156Z,7.90
2022-11-28T13:16:10.202Z,7.89
2022-11-28T13:17:10.174Z,7.85
2022-11-28T13:18:10.170Z,7.82